Time;durP1;ratioP1;P1;durP2;ratioP2;P2;SDS_P1;SDS_P2;PMS_P1;PMS_P2;Temp;Humidity;BMP_temperature;BMP_pressure;BME280_temperature;BME280_humidity;BME280_pressure;Samples;Min_cycle;Max_cycle;Signal;HPM_P1;HPM_P2
2021/10/11 00:00:27;;;;;;;;;34.00;24.50;;;;;;;;155960;30;139582742;-76
2021/10/11 00:06:50;;;;;;;;;;;;;;;;;;3;117139320;126077184;-76
2021/10/11 00:13:04;;;;;;;;;58.00;37.00;;;;;;;;3;117093992;130418392;-76
2021/10/11 00:19:35;;;;;;;;;14.00;14.00;;;;;;;;3;130579387;140054511;-76
2021/10/11 00:25:19;;;;;;;;;35.50;24.50;;;;;;;;3;127561768;139880414;-75
2021/10/11 00:31:01;;;;;;;;;;;;;;;;;;3;86176374;113922324;-76
2021/10/11 00:34:30;;;;;;;;;61.50;43.50;;;;;;;;160695;30;126123404;-76
2021/10/11 00:39:04;;;;;;;;;;;;;;;;;;124911;30;148289695;-75
2021/10/11 00:41:31;;;;;;;;;59.00;45.75;;;;;;;;2212245;30;41613908;-75
2021/10/11 00:43:57;;;;;;;;;61.50;46.50;;;;;;;;4679945;30;9741;-76
2021/10/11 00:46:22;;;;;;;;;69.75;48.00;;;;;;;;4678069;30;14938;-76
2021/10/11 00:48:47;;;;;;;;;64.00;46.67;;;;;;;;4680052;30;8854;-76
2021/10/11 00:51:12;;;;;;;;;64.00;48.33;;;;;;;;4681285;30;12679;-75
2021/10/11 00:53:38;;;;;;;;;60.33;46.00;;;;;;;;4676697;30;13953;-76
2021/10/11 00:56:03;;;;;;;;;68.00;49.75;;;;;;;;4678171;30;11815;-75
2021/10/11 00:58:28;;;;;;;;;70.75;47.75;;;;;;;;4677278;30;9128;-76
2021/10/11 01:00:55;;;;;;;;;57.67;45.67;;;;;;;;4676040;30;9105;-76
2021/10/11 01:03:20;;;;;;;;;65.25;47.25;;;;;;;;4680885;30;10598;-75
2021/10/11 01:05:45;;;;;;;;;63.00;46.00;;;;;;;;4675129;30;14342;-76
2021/10/11 01:08:10;;;;;;;;;66.25;49.00;;;;;;;;4686239;30;9290;-75
2021/10/11 01:10:36;;;;;;;;;64.33;48.33;;;;;;;;4680765;30;10819;-76
2021/10/11 01:13:01;;;;;;;;;66.00;49.75;;;;;;;;4675854;30;15141;-76
2021/10/11 01:15:26;;;;;;;;;61.25;49.50;;;;;;;;4680370;30;9199;-75
2021/10/11 01:17:52;;;;;;;;;62.00;46.00;;;;;;;;4676191;30;15087;-76
2021/10/11 01:20:17;;;;;;;;;60.00;47.00;;;;;;;;4683523;30;14157;-75
2021/10/11 01:22:43;;;;;;;;;70.00;52.33;;;;;;;;4681101;30;12679;-75
2021/10/11 01:25:10;;;;;;;;;70.00;49.00;;;;;;;;4675629;30;12588;-75
2021/10/11 01:27:35;;;;;;;;;65.25;47.75;;;;;;;;4679338;30;8889;-76
2021/10/11 01:30:01;;;;;;;;;66.25;50.75;;;;;;;;4678618;30;10812;-75
2021/10/11 01:32:26;;;;;;;;;67.75;49.25;;;;;;;;4680575;30;10415;-75
2021/10/11 01:34:51;;;;;;;;;59.25;44.50;;;;;;;;4678861;30;15426;-75
2021/10/11 01:37:17;;;;;;;;;62.00;47.00;;;;;;;;4677172;30;13851;-75
2021/10/11 01:39:42;;;;;;;;;66.00;49.00;;;;;;;;4677154;30;9460;-76
2021/10/11 01:42:08;;;;;;;;;71.00;52.25;;;;;;;;4675219;30;10936;-75
2021/10/11 01:44:34;;;;;;;;;69.25;50.25;;;;;;;;4680577;30;12668;-76
2021/10/11 01:46:59;;;;;;;;;67.50;51.00;;;;;;;;4683707;30;9016;-76
2021/10/11 01:49:24;;;;;;;;;70.67;53.33;;;;;;;;4681000;30;9582;-75
2021/10/11 01:51:49;;;;;;;;;64.33;50.00;;;;;;;;4685695;30;11801;-76
2021/10/11 01:54:14;;;;;;;;;70.00;52.67;;;;;;;;4680386;30;15461;-76
2021/10/11 01:56:40;;;;;;;;;70.33;52.00;;;;;;;;4681062;30;11155;-76
2021/10/11 01:59:05;;;;;;;;;75.00;55.33;;;;;;;;4685460;30;11835;-76
2021/10/11 02:01:30;;;;;;;;;71.33;50.33;;;;;;;;4675124;30;11859;-75
2021/10/11 02:03:55;;;;;;;;;65.00;48.67;;;;;;;;4683078;30;13969;-76
2021/10/11 02:06:22;;;;;;;;;74.67;53.67;;;;;;;;4686131;30;9623;-76
2021/10/11 02:08:47;;;;;;;;;73.50;50.00;;;;;;;;4686321;30;11800;-76
2021/10/11 02:13:46;;;;;;;;;64.25;50.00;;;;;;;;4715798;30;9510;-76
2021/10/11 02:16:11;;;;;;;;;61.00;47.33;;;;;;;;4713484;30;26021;-76
2021/10/11 02:18:37;;;;;;;;;69.25;49.75;;;;;;;;4713773;30;11041;-76
2021/10/11 02:21:02;;;;;;;;;70.67;48.67;;;;;;;;4709775;30;10904;-76
2021/10/11 02:23:27;;;;;;;;;73.67;50.67;;;;;;;;4711508;30;17238;-76
2021/10/11 02:25:53;;;;;;;;;65.00;48.67;;;;;;;;4707244;30;10196;-76
2021/10/11 02:28:18;;;;;;;;;70.50;50.75;;;;;;;;4708677;30;11937;-75
2021/10/11 02:30:43;;;;;;;;;67.50;50.25;;;;;;;;4717711;30;9027;-76
2021/10/11 02:33:08;;;;;;;;;63.67;49.00;;;;;;;;4718408;30;10952;-75
2021/10/11 02:35:34;;;;;;;;;68.33;50.33;;;;;;;;4712567;30;11795;-76
2021/10/11 02:37:59;;;;;;;;;63.67;50.67;;;;;;;;4709926;30;9590;-76
2021/10/11 02:40:24;;;;;;;;;63.67;49.33;;;;;;;;4717366;30;11920;-76
2021/10/11 02:42:49;;;;;;;;;66.00;48.50;;;;;;;;4717141;30;11871;-75
2021/10/11 02:45:14;;;;;;;;;62.00;46.33;;;;;;;;4715461;30;17261;-76
2021/10/11 02:47:40;;;;;;;;;64.67;49.00;;;;;;;;4718358;30;11865;-76
2021/10/11 02:50:06;;;;;;;;;68.00;49.25;;;;;;;;4712251;30;12222;-75
2021/10/11 02:52:33;;;;;;;;;67.00;49.00;;;;;;;;4706113;30;17905;-75
2021/10/11 02:54:58;;;;;;;;;63.75;46.00;;;;;;;;4711696;30;11084;-76
2021/10/11 02:57:23;;;;;;;;;65.50;47.25;;;;;;;;4714997;30;9306;-76
2021/10/11 02:59:49;;;;;;;;;68.67;45.67;;;;;;;;4710472;30;13761;-75
2021/10/11 03:02:14;;;;;;;;;60.00;45.33;;;;;;;;4713646;30;11736;-76
2021/10/11 03:04:39;;;;;;;;;66.25;46.75;;;;;;;;4715817;30;16988;-76
2021/10/11 03:07:04;;;;;;;;;61.00;45.00;;;;;;;;4710627;30;17684;-76
2021/10/11 03:09:30;;;;;;;;;68.67;48.67;;;;;;;;4717742;30;11759;-75
2021/10/11 03:11:55;;;;;;;;;65.67;47.33;;;;;;;;4717002;30;14797;-75
2021/10/11 03:14:20;;;;;;;;;64.33;48.33;;;;;;;;4712692;30;11914;-76
2021/10/11 03:16:45;;;;;;;;;64.00;48.50;;;;;;;;4708897;30;18501;-75
2021/10/11 03:19:10;;;;;;;;;58.67;47.67;;;;;;;;4708437;30;8818;-76
2021/10/11 03:21:36;;;;;;;;;65.67;46.33;;;;;;;;4708887;30;11788;-75
2021/10/11 03:24:01;;;;;;;;;58.00;46.33;;;;;;;;4710168;30;11842;-75
2021/10/11 03:26:26;;;;;;;;;64.25;47.00;;;;;;;;4711218;30;18347;-75
2021/10/11 03:28:51;;;;;;;;;55.00;39.67;;;;;;;;4710649;30;11471;-76
2021/10/11 03:31:17;;;;;;;;;63.67;47.67;;;;;;;;4714429;30;14540;-75
2021/10/11 03:33:42;;;;;;;;;51.33;42.00;;;;;;;;4717725;30;10444;-75
2021/10/11 03:36:08;;;;;;;;;62.00;46.00;;;;;;;;4714944;30;15540;-76
2021/10/11 03:38:33;;;;;;;;;60.25;44.00;;;;;;;;4715204;30;13004;-75
2021/10/11 03:40:58;;;;;;;;;60.25;43.50;;;;;;;;4716037;30;9352;-75
2021/10/11 03:43:24;;;;;;;;;61.00;44.67;;;;;;;;4712812;30;18685;-75
2021/10/11 03:45:49;;;;;;;;;60.00;48.00;;;;;;;;4716652;30;12538;-76
2021/10/11 03:48:14;;;;;;;;;58.25;45.00;;;;;;;;4713774;30;10646;-76
2021/10/11 03:50:41;;;;;;;;;64.25;44.75;;;;;;;;4712210;30;17698;-76
2021/10/11 03:53:06;;;;;;;;;62.00;46.50;;;;;;;;4716674;30;16009;-75
2021/10/11 03:55:31;;;;;;;;;61.25;44.25;;;;;;;;4710644;30;9970;-76
2021/10/11 03:57:56;;;;;;;;;57.67;45.33;;;;;;;;4718330;30;9665;-76
2021/10/11 04:00:22;;;;;;;;;58.00;42.67;;;;;;;;4708224;30;11872;-76
2021/10/11 04:02:47;;;;;;;;;54.67;45.00;;;;;;;;4710596;30;11502;-76
2021/10/11 04:05:12;;;;;;;;;58.50;40.75;;;;;;;;4715496;30;12526;-75
2021/10/11 04:07:40;;;;;;;;;56.75;40.75;;;;;;;;4711468;30;11421;-75
2021/10/11 04:10:07;;;;;;;;;55.75;40.25;;;;;;;;4713123;30;16621;-75
2021/10/11 04:12:34;;;;;;;;;55.25;41.00;;;;;;;;4714500;30;8857;-76
2021/10/11 04:15:00;;;;;;;;;50.50;41.00;;;;;;;;4708677;30;16968;-76
2021/10/11 04:17:25;;;;;;;;;52.25;40.25;;;;;;;;4710792;30;18253;-75
2021/10/11 04:19:50;;;;;;;;;54.00;38.00;;;;;;;;4712061;30;18648;-75
2021/10/11 04:22:16;;;;;;;;;54.25;36.00;;;;;;;;4711813;30;10005;-75
2021/10/11 04:24:41;;;;;;;;;49.00;34.33;;;;;;;;4710787;30;8912;-76
2021/10/11 04:27:06;;;;;;;;;46.25;34.50;;;;;;;;4704448;30;12613;-75
2021/10/11 04:29:32;;;;;;;;;43.50;36.00;;;;;;;;4704233;30;9534;-75
2021/10/11 04:31:57;;;;;;;;;38.67;34.33;;;;;;;;4704198;30;10703;-75
2021/10/11 04:34:22;;;;;;;;;36.67;32.67;;;;;;;;4702666;30;11786;-75
2021/10/11 04:36:47;;;;;;;;;34.50;27.50;;;;;;;;4703129;30;10383;-76
2021/10/11 04:39:13;;;;;;;;;32.33;28.67;;;;;;;;4703479;30;9652;-76
2021/10/11 04:41:38;;;;;;;;;34.00;27.00;;;;;;;;4705297;30;15340;-76
2021/10/11 04:44:03;;;;;;;;;27.00;23.67;;;;;;;;4705947;30;13898;-76
2021/10/11 04:46:28;;;;;;;;;30.75;25.75;;;;;;;;4703172;30;11819;-76
2021/10/11 04:48:54;;;;;;;;;40.25;27.50;;;;;;;;4704242;30;9280;-76
2021/10/11 04:51:19;;;;;;;;;30.75;25.75;;;;;;;;4705108;30;8919;-76
2021/10/11 04:53:44;;;;;;;;;33.33;26.00;;;;;;;;4705180;30;8906;-76
2021/10/11 04:56:09;;;;;;;;;33.00;26.75;;;;;;;;5380369;24;15567;-77
2021/10/11 04:58:35;;;;;;;;;29.00;23.67;;;;;;;;4695203;30;9241;-76
2021/10/11 05:01:00;;;;;;;;;27.00;22.00;;;;;;;;4688561;30;9045;-75
2021/10/11 05:03:25;;;;;;;;;26.33;20.00;;;;;;;;4694265;30;11844;-77
2021/10/11 05:05:50;;;;;;;;;25.00;21.75;;;;;;;;4692422;30;11797;-77
2021/10/11 05:08:16;;;;;;;;;26.00;21.67;;;;;;;;4692603;30;9941;-76
2021/10/11 05:10:41;;;;;;;;;24.75;18.25;;;;;;;;4706369;30;12205;-76
2021/10/11 05:13:06;;;;;;;;;22.67;19.00;;;;;;;;4692864;30;11380;-76
2021/10/11 05:15:31;;;;;;;;;24.00;17.00;;;;;;;;4689836;30;11733;-74
2021/10/11 05:17:57;;;;;;;;;17.67;16.67;;;;;;;;4688699;30;11221;-75
2021/10/11 05:20:24;;;;;;;;;29.75;16.00;;;;;;;;4688812;30;12922;-75
2021/10/11 05:22:49;;;;;;;;;27.50;20.25;;;;;;;;4698213;30;10786;-76
2021/10/11 05:25:14;;;;;;;;;29.67;22.00;;;;;;;;4706866;30;16575;-75
2021/10/11 05:32:50;;;;;;;;;24.75;19.50;;;;;;;;5432039;24;8880;-76
2021/10/11 05:35:15;;;;;;;;;24.50;19.25;;;;;;;;4714529;30;9550;-76
2021/10/11 05:37:40;;;;;;;;;25.00;20.00;;;;;;;;4717823;30;11010;-75
2021/10/11 05:40:07;;;;;;;;;18.67;16.33;;;;;;;;4715279;30;10828;-75
2021/10/11 05:42:32;;;;;;;;;27.25;19.00;;;;;;;;4719478;30;10405;-75
2021/10/11 05:44:58;;;;;;;;;21.00;19.00;;;;;;;;4713621;30;10843;-75
2021/10/11 05:47:23;;;;;;;;;22.75;18.00;;;;;;;;4714126;30;18781;-75
2021/10/11 05:49:48;;;;;;;;;17.00;15.00;;;;;;;;4719029;30;13962;-75
2021/10/11 05:52:13;;;;;;;;;24.25;21.00;;;;;;;;4717134;30;10610;-75
2021/10/11 05:54:39;;;;;;;;;21.50;16.25;;;;;;;;4718315;30;8864;-75
2021/10/11 05:57:05;;;;;;;;;27.00;21.25;;;;;;;;4719470;30;15812;-74
2021/10/11 05:59:30;;;;;;;;;23.75;20.50;;;;;;;;4722897;30;17571;-75
2021/10/11 06:01:55;;;;;;;;;22.25;17.50;;;;;;;;4720736;30;12985;-75
2021/10/11 06:04:20;;;;;;;;;22.67;16.00;;;;;;;;4722926;30;15558;-75
2021/10/11 06:06:46;;;;;;;;;21.33;19.00;;;;;;;;4716322;30;11795;-75
2021/10/11 06:09:11;;;;;;;;;20.75;16.50;;;;;;;;4720137;30;11790;-74
2021/10/11 06:11:36;;;;;;;;;21.00;14.00;;;;;;;;4718619;30;16701;-75
2021/10/11 06:14:01;;;;;;;;;21.00;15.25;;;;;;;;4718254;30;18879;-75
2021/10/11 06:16:27;;;;;;;;;16.33;14.00;;;;;;;;4712767;30;9969;-75
2021/10/11 06:18:52;;;;;;;;;16.00;12.67;;;;;;;;4723858;30;10111;-75
2021/10/11 06:21:17;;;;;;;;;19.25;16.00;;;;;;;;4713823;30;10200;-74
2021/10/11 06:23:43;;;;;;;;;17.25;14.75;;;;;;;;4721173;30;16155;-74
2021/10/11 06:26:08;;;;;;;;;19.75;12.00;;;;;;;;4719270;30;11307;-74
2021/10/11 06:28:33;;;;;;;;;14.00;14.00;;;;;;;;4714509;30;10829;-75
2021/10/11 06:30:59;;;;;;;;;20.00;15.67;;;;;;;;4718540;30;14232;-75
2021/10/11 06:33:25;;;;;;;;;17.00;15.50;;;;;;;;4715504;30;10307;-75
2021/10/11 06:35:50;;;;;;;;;16.75;12.50;;;;;;;;4718536;30;8889;-76
2021/10/11 06:38:16;;;;;;;;;14.33;12.00;;;;;;;;4723621;30;15930;-77
2021/10/11 06:40:45;;;;;;;;;20.00;13.00;;;;;;;;4716566;30;15930;-76
2021/10/11 06:43:11;;;;;;;;;16.75;14.75;;;;;;;;4711424;30;14535;-76
2021/10/11 06:45:36;;;;;;;;;16.67;12.33;;;;;;;;4720229;30;8845;-76
2021/10/11 06:48:01;;;;;;;;;16.67;13.33;;;;;;;;4712254;30;14317;-76
2021/10/11 06:50:26;;;;;;;;;12.00;11.00;;;;;;;;4711894;30;11810;-76
2021/10/11 06:52:51;;;;;;;;;14.25;11.75;;;;;;;;4715313;30;12501;-75
2021/10/11 06:55:17;;;;;;;;;24.67;14.00;;;;;;;;4711851;30;19602;-76
2021/10/11 06:57:42;;;;;;;;;18.00;11.00;;;;;;;;4717778;30;10516;-77
2021/10/11 07:00:08;;;;;;;;;13.33;13.33;;;;;;;;4715333;30;10859;-76
2021/10/11 07:02:33;;;;;;;;;26.00;18.75;;;;;;;;4714134;30;15253;-76
2021/10/11 07:05:04;;;;;;;;;15.00;15.00;;;;;;;;4713706;30;11084;-77
2021/10/11 07:07:33;;;;;;;;;16.25;12.00;;;;;;;;4711643;30;11408;-77
2021/10/11 07:09:58;;;;;;;;;15.25;12.75;;;;;;;;4714861;30;8844;-77
2021/10/11 07:12:23;;;;;;;;;13.33;10.67;;;;;;;;4715437;30;8907;-76
2021/10/11 07:14:50;;;;;;;;;16.33;12.33;;;;;;;;4715083;30;11186;-76
2021/10/11 07:17:15;;;;;;;;;14.75;12.25;;;;;;;;4711507;30;12463;-76
2021/10/11 07:19:45;;;;;;;;;15.00;12.67;;;;;;;;4711005;30;14918;-76
2021/10/11 07:22:10;;;;;;;;;10.00;9.25;;;;;;;;4713746;30;10950;-76
2021/10/11 07:24:36;;;;;;;;;18.67;11.33;;;;;;;;4714844;30;9613;-76
2021/10/11 07:27:01;;;;;;;;;19.33;13.00;;;;;;;;4713016;30;12590;-76
2021/10/11 07:29:26;;;;;;;;;10.00;10.00;;;;;;;;4706579;30;15473;-76
2021/10/11 07:31:53;;;;;;;;;12.50;11.00;;;;;;;;4709496;30;14263;-75
2021/10/11 07:34:18;;;;;;;;;11.25;9.50;;;;;;;;4707480;30;10829;-76
2021/10/11 07:36:44;;;;;;;;;9.00;7.75;;;;;;;;4717039;30;9167;-76
2021/10/11 07:41:39;;;;;;;;;10.00;9.00;;;;;;;;4734069;30;11725;-96
2021/10/11 07:46:51;;;;;;;;;9.00;9.00;;;;;;;;4703053;24;9695;-76
2021/10/11 07:49:17;;;;;;;;;10.75;8.75;;;;;;;;4687011;30;8891;-76
2021/10/11 07:51:42;;;;;;;;;7.75;5.00;;;;;;;;4688179;30;10000;-76
2021/10/11 07:54:07;;;;;;;;;9.00;6.33;;;;;;;;4690957;30;11541;-76
2021/10/11 07:56:33;;;;;;;;;11.33;8.00;;;;;;;;4691889;30;9883;-76
2021/10/11 07:58:59;;;;;;;;;10.00;9.00;;;;;;;;4689047;30;12157;-76
2021/10/11 08:01:24;;;;;;;;;8.50;4.00;;;;;;;;4687785;30;12124;-76
2021/10/11 08:03:50;;;;;;;;;5.00;5.00;;;;;;;;4695687;30;8968;-76
2021/10/11 08:06:15;;;;;;;;;9.25;7.00;;;;;;;;4693167;30;11684;-76
2021/10/11 08:08:40;;;;;;;;;11.00;8.33;;;;;;;;4689882;30;14623;-76
2021/10/11 08:11:05;;;;;;;;;10.00;7.67;;;;;;;;4689428;30;11714;-76
2021/10/11 08:13:30;;;;;;;;;10.67;6.00;;;;;;;;4694259;30;12227;-75
2021/10/11 08:15:56;;;;;;;;;11.25;6.50;;;;;;;;4694781;30;9487;-76
2021/10/11 08:18:22;;;;;;;;;9.25;7.75;;;;;;;;4689009;30;14744;-76
2021/10/11 08:20:47;;;;;;;;;12.25;8.25;;;;;;;;4692419;30;9933;-76
2021/10/11 08:23:13;;;;;;;;;11.00;9.00;;;;;;;;4693019;30;11035;-76
2021/10/11 08:25:38;;;;;;;;;13.50;10.00;;;;;;;;4695862;30;9601;-76
2021/10/11 08:28:04;;;;;;;;;8.50;7.50;;;;;;;;4688832;30;9149;-76
2021/10/11 08:30:29;;;;;;;;;10.00;6.00;;;;;;;;4697985;30;9127;-76
2021/10/11 08:32:54;;;;;;;;;8.00;5.00;;;;;;;;4692510;30;9806;-76
2021/10/11 08:35:20;;;;;;;;;22.33;16.00;;;;;;;;4689623;30;9466;-76
2021/10/11 08:37:45;;;;;;;;;9.75;8.00;;;;;;;;4690112;30;14017;-76
2021/10/11 08:40:11;;;;;;;;;5.25;4.50;;;;;;;;4690154;30;8875;-76
2021/10/11 08:42:37;;;;;;;;;3.50;3.50;;;;;;;;4697049;30;8866;-75
2021/10/11 08:45:04;;;;;;;;;4.00;3.00;;;;;;;;4692913;30;11771;-76
2021/10/11 08:47:29;;;;;;;;;4.75;4.00;;;;;;;;4691310;30;16618;-76
2021/10/11 08:49:55;;;;;;;;;22.75;12.50;;;;;;;;4688104;30;10210;-76
2021/10/11 08:52:23;;;;;;;;;3.50;2.00;;;;;;;;4689165;30;8980;-76
2021/10/11 08:54:49;;;;;;;;;7.25;4.00;;;;;;;;4692483;30;8867;-76
2021/10/11 08:57:24;;;;;;;;;6.50;4.00;;;;;;;;4690927;30;10832;-76
2021/10/11 08:59:50;;;;;;;;;5.50;4.00;;;;;;;;4687839;30;9302;-76
2021/10/11 09:02:19;;;;;;;;;5.00;3.50;;;;;;;;4689119;30;13812;-76
2021/10/11 09:04:48;;;;;;;;;5.00;3.75;;;;;;;;4688240;30;13573;-76
2021/10/11 09:07:13;;;;;;;;;3.50;3.25;;;;;;;;4691190;30;13715;-76
2021/10/11 09:09:46;;;;;;;;;3.00;2.00;;;;;;;;4695017;30;8897;-76
2021/10/11 09:12:15;;;;;;;;;6.75;3.00;;;;;;;;4686320;30;9961;-76
2021/10/11 09:14:45;;;;;;;;;7.25;5.00;;;;;;;;4693571;30;11844;-77
2021/10/11 09:17:13;;;;;;;;;6.75;3.00;;;;;;;;4692855;30;13267;-75
2021/10/11 09:19:46;;;;;;;;;1.00;1.00;;;;;;;;4685892;30;9722;-76
2021/10/11 09:22:11;;;;;;;;;3.00;3.00;;;;;;;;4690479;30;8927;-76
2021/10/11 09:24:36;;;;;;;;;6.00;2.33;;;;;;;;4696042;30;9635;-76
2021/10/11 09:27:02;;;;;;;;;3.00;2.67;;;;;;;;4690975;30;14017;-75
2021/10/11 09:29:37;;;;;;;;;2.25;2.00;;;;;;;;4692719;30;15018;-76
2021/10/11 09:32:04;;;;;;;;;3.75;1.75;;;;;;;;4692879;30;9021;-76
2021/10/11 09:34:32;;;;;;;;;4.25;3.00;;;;;;;;4695578;30;9679;-76
2021/10/11 09:36:57;;;;;;;;;2.00;0.50;;;;;;;;4696841;30;13368;-75
2021/10/11 09:39:23;;;;;;;;;3.50;1.75;;;;;;;;4696645;30;9633;-76
2021/10/11 09:41:50;;;;;;;;;2.00;2.00;;;;;;;;4699419;30;13800;-76
2021/10/11 09:44:16;;;;;;;;;4.00;2.00;;;;;;;;4695345;30;18091;-76
2021/10/11 09:46:46;;;;;;;;;2.75;2.00;;;;;;;;4696893;30;8908;-76
2021/10/11 09:49:11;;;;;;;;;4.00;2.00;;;;;;;;4699693;30;8897;-76
2021/10/11 09:51:37;;;;;;;;;3.00;1.00;;;;;;;;4708740;30;8884;-76
2021/10/11 09:54:02;;;;;;;;;4.00;2.50;;;;;;;;4702182;30;9590;-76
2021/10/11 09:56:29;;;;;;;;;1.50;1.50;;;;;;;;4693450;30;14930;-75
2021/10/11 09:58:54;;;;;;;;;1.00;1.00;;;;;;;;4694803;30;9230;-76
2021/10/11 10:01:21;;;;;;;;;1.75;1.75;;;;;;;;4698324;30;14390;-75
2021/10/11 10:03:47;;;;;;;;;3.00;1.25;;;;;;;;4699156;30;8799;-76
2021/10/11 10:06:12;;;;;;;;;2.25;1.00;;;;;;;;4699657;30;17978;-76
2021/10/11 10:08:38;;;;;;;;;3.00;1.25;;;;;;;;4701113;30;12424;-76
2021/10/11 10:11:04;;;;;;;;;1.00;1.00;;;;;;;;4696602;30;8886;-76
2021/10/11 10:13:35;;;;;;;;;3.00;2.00;;;;;;;;4697875;30;14534;-75
2021/10/11 10:16:08;;;;;;;;;5.50;2.00;;;;;;;;4697061;30;10166;-75
2021/10/11 10:18:39;;;;;;;;;2.00;2.00;;;;;;;;4700147;30;8848;-76
2021/10/11 10:21:06;;;;;;;;;3.25;2.00;;;;;;;;4896710;24;13883;-96
2021/10/11 10:23:33;;;;;;;;;2.00;1.50;;;;;;;;4757499;24;8826;-76
2021/10/11 10:25:59;;;;;;;;;2.00;2.00;;;;;;;;4723186;30;8905;-76
2021/10/11 10:28:25;;;;;;;;;6.50;1.00;;;;;;;;4723800;30;8853;-75
2021/10/11 10:31:01;;;;;;;;;3.00;2.00;;;;;;;;4724906;30;8887;-77
2021/10/11 10:33:37;;;;;;;;;3.25;3.00;;;;;;;;4723066;30;8868;-76
2021/10/11 10:36:03;;;;;;;;;3.50;1.00;;;;;;;;4719326;30;9357;-77
2021/10/11 10:38:28;;;;;;;;;3.25;2.00;;;;;;;;4725492;30;17029;-77
2021/10/11 10:40:54;;;;;;;;;4.00;3.00;;;;;;;;4722896;30;17964;-77
2021/10/11 10:43:20;;;;;;;;;1.00;1.00;;;;;;;;4723280;30;10294;-76
2021/10/11 10:45:48;;;;;;;;;3.50;1.75;;;;;;;;4725447;30;9598;-77
2021/10/11 10:48:24;;;;;;;;;4.25;2.00;;;;;;;;4723496;30;18036;-76
2021/10/11 10:50:51;;;;;;;;;1.00;0.00;;;;;;;;4724118;30;9391;-76
2021/10/11 10:53:16;;;;;;;;;4.00;2.00;;;;;;;;4723923;30;10751;-76
2021/10/11 10:55:42;;;;;;;;;2.00;2.00;;;;;;;;4724162;30;9103;-76
2021/10/11 10:58:10;;;;;;;;;2.50;1.75;;;;;;;;4722413;30;9151;-77
2021/10/11 11:00:36;;;;;;;;;3.00;3.00;;;;;;;;4726037;30;8862;-77
2021/10/11 11:03:01;;;;;;;;;3.00;1.00;;;;;;;;4724415;30;12928;-77
2021/10/11 11:05:29;;;;;;;;;0.75;0.75;;;;;;;;4724214;30;9861;-77
2021/10/11 11:07:55;;;;;;;;;2.75;1.00;;;;;;;;4722840;30;14874;-76
2021/10/11 11:10:28;;;;;;;;;2.00;2.00;;;;;;;;4722985;30;9517;-76
2021/10/11 11:13:00;;;;;;;;;4.00;2.00;;;;;;;;4726102;30;8821;-76
2021/10/11 11:15:30;;;;;;;;;2.75;2.75;;;;;;;;4725371;30;8833;-77
2021/10/11 11:17:56;;;;;;;;;2.00;1.00;;;;;;;;4722656;30;15013;-77
2021/10/11 11:20:24;;;;;;;;;2.00;2.00;;;;;;;;4721835;30;9711;-77
2021/10/11 11:22:50;;;;;;;;;3.50;2.00;;;;;;;;4722421;30;18830;-76
2021/10/11 11:25:15;;;;;;;;;1.00;1.00;;;;;;;;4719847;30;9726;-76
2021/10/11 11:27:42;;;;;;;;;1.50;1.50;;;;;;;;4722766;30;8897;-76
2021/10/11 11:30:12;;;;;;;;;3.25;2.00;;;;;;;;4723343;30;9863;-76
2021/10/11 11:32:57;;;;;;;;;3.25;1.00;;;;;;;;4723368;30;9931;-77
2021/10/11 11:35:24;;;;;;;;;1.75;1.75;;;;;;;;4722341;30;9536;-76
2021/10/11 11:37:51;;;;;;;;;5.00;2.00;;;;;;;;4725288;30;8849;-76
2021/10/11 11:40:18;;;;;;;;;2.00;1.25;;;;;;;;4723093;30;15520;-76
2021/10/11 11:42:44;;;;;;;;;3.50;2.25;;;;;;;;4725984;30;9190;-76
2021/10/11 11:45:09;;;;;;;;;1.50;1.00;;;;;;;;4722867;30;10291;-77
2021/10/11 11:47:34;;;;;;;;;3.50;2.00;;;;;;;;4722654;30;18576;-76
2021/10/11 11:50:00;;;;;;;;;3.00;0.00;;;;;;;;4721120;30;13752;-76
2021/10/11 11:52:33;;;;;;;;;1.00;1.00;;;;;;;;4723058;30;10491;-76
2021/10/11 11:54:58;;;;;;;;;0.00;0.00;;;;;;;;4721241;30;12489;-75
2021/10/11 11:57:23;;;;;;;;;3.00;2.00;;;;;;;;4721948;30;8893;-75
2021/10/11 11:59:49;;;;;;;;;2.75;1.75;;;;;;;;4723136;30;9791;-76
2021/10/11 12:02:16;;;;;;;;;2.25;1.00;;;;;;;;4722997;30;9116;-76
2021/10/11 12:04:44;;;;;;;;;6.00;2.50;;;;;;;;4722787;30;18072;-76
2021/10/11 12:07:12;;;;;;;;;4.25;3.25;;;;;;;;4721736;30;12528;-75
2021/10/11 12:09:38;;;;;;;;;3.25;1.50;;;;;;;;4725945;30;8853;-75
2021/10/11 12:12:04;;;;;;;;;3.25;2.25;;;;;;;;4720224;30;12193;-76
2021/10/11 12:14:30;;;;;;;;;2.50;2.00;;;;;;;;4720016;30;13057;-75
2021/10/11 12:17:06;;;;;;;;;2.00;1.75;;;;;;;;4723019;30;15497;-76
2021/10/11 12:19:32;;;;;;;;;3.50;2.75;;;;;;;;4716919;30;14043;-76
2021/10/11 12:21:57;;;;;;;;;7.00;3.00;;;;;;;;4719389;30;8852;-77
2021/10/11 12:24:25;;;;;;;;;1.75;1.75;;;;;;;;4721707;30;8957;-77
2021/10/11 12:26:50;;;;;;;;;3.75;2.75;;;;;;;;4723681;30;9030;-77
2021/10/11 12:29:15;;;;;;;;;3.50;2.25;;;;;;;;4717268;30;9125;-77
2021/10/11 12:31:41;;;;;;;;;2.75;2.75;;;;;;;;4719818;30;9796;-76
2021/10/11 12:34:07;;;;;;;;;10.50;5.75;;;;;;;;4719401;30;17369;-77
2021/10/11 12:36:33;;;;;;;;;4.25;4.00;;;;;;;;4726240;30;8790;-76
2021/10/11 12:39:11;;;;;;;;;3.00;2.50;;;;;;;;4725486;30;11167;-77
2021/10/11 12:41:37;;;;;;;;;4.00;2.50;;;;;;;;4725992;30;12653;-76
2021/10/11 12:44:04;;;;;;;;;4.25;2.00;;;;;;;;4726123;30;9442;-76
2021/10/11 12:46:39;;;;;;;;;4.00;4.00;;;;;;;;4726848;30;18991;-76
2021/10/11 12:49:04;;;;;;;;;2.25;2.25;;;;;;;;4728245;30;10511;-76
2021/10/11 12:51:31;;;;;;;;;4.67;3.00;;;;;;;;4731839;30;9429;-75
2021/10/11 12:54:03;;;;;;;;;2.00;2.00;;;;;;;;4727213;30;17408;-75
2021/10/11 12:56:29;;;;;;;;;1.25;1.25;;;;;;;;4726923;30;14788;-76
2021/10/11 12:58:58;;;;;;;;;3.00;3.00;;;;;;;;4731807;30;11380;-76
2021/10/11 13:01:24;;;;;;;;;2.25;2.00;;;;;;;;4721073;30;10160;-77
2021/10/11 13:03:49;;;;;;;;;1.75;1.75;;;;;;;;4725138;30;8919;-76
2021/10/11 13:06:24;;;;;;;;;2.00;2.00;;;;;;;;4720264;30;18487;-77
2021/10/11 13:11:28;;;;;;;;;3.75;3.00;;;;;;;;4968794;24;8881;-77
2021/10/11 13:13:53;;;;;;;;;2.25;2.25;;;;;;;;4721524;30;9398;-76
2021/10/11 13:16:19;;;;;;;;;3.00;1.25;;;;;;;;4720419;30;9694;-76
2021/10/11 13:18:44;;;;;;;;;2.00;1.00;;;;;;;;4718591;30;8982;-77
2021/10/11 13:21:10;;;;;;;;;2.50;2.00;;;;;;;;4721177;30;15615;-76
2021/10/11 13:23:35;;;;;;;;;2.25;2.00;;;;;;;;4721084;30;10032;-77
2021/10/11 13:26:01;;;;;;;;;3.00;2.00;;;;;;;;4717525;30;18846;-77
2021/10/11 13:28:26;;;;;;;;;2.75;2.00;;;;;;;;4716175;30;9768;-76
2021/10/11 13:39:54;;;;;;;;;4.25;2.75;;;;;;;;4705583;30;16633;-77
2021/10/11 14:27:56;;;;;;;;;3.50;3.50;;;;;;;;4707396;30;8869;-76
2021/10/11 14:30:25;;;;;;;;;4.00;4.00;;;;;;;;4707987;30;14772;-76
2021/10/11 14:33:01;;;;;;;;;8.00;4.25;;;;;;;;4710620;30;8941;-76
2021/10/11 16:00:57;;;;;;;;;4.00;3.00;;;;;;;;2168906;24;113881312;-77
2021/10/11 16:03:50;;;;;;;;;8.33;6.33;;;;;;;;360640;30;126653917;-77
2021/10/11 16:06:31;;;;;;;;;3.00;3.00;;;;;;;;1779886;30;73576732;-77
2021/10/11 16:12:27;;;;;;;;;;;;;;;;;;316746;30;90068160;-77
2021/10/11 16:17:28;;;;;;;;;0.50;0.50;;;;;;;;2;182778084;182778084;-77
2021/10/11 16:20:00;;;;;;;;;9.00;6.00;;;;;;;;3765590;30;8069296;-77
2021/10/11 16:22:26;;;;;;;;;5.25;4.75;;;;;;;;4039212;30;20440875;-76
2021/10/11 16:24:51;;;;;;;;;6.00;5.00;;;;;;;;4537270;30;4207619;-76
2021/10/11 16:27:16;;;;;;;;;5.67;5.00;;;;;;;;4698688;30;9534;-77
2021/10/11 16:29:41;;;;;;;;;7.00;5.00;;;;;;;;3809658;30;13368474;-77
2021/10/11 16:32:07;;;;;;;;;4.00;4.00;;;;;;;;3114774;30;11763721;-77
2021/10/11 16:34:32;;;;;;;;;5.25;4.25;;;;;;;;1548984;30;47713180;-77
2021/10/11 16:39:03;;;;;;;;;0.50;0.50;;;;;;;;2849155;30;100696026;-77
2021/10/11 16:41:39;;;;;;;;;4.50;3.50;;;;;;;;2750315;30;14900952;-76
2021/10/11 16:44:15;;;;;;;;;6.40;4.80;;;;;;;;1778449;30;22688289;-77
2021/10/11 16:46:41;;;;;;;;;4.75;3.25;;;;;;;;3216569;30;13709352;-77
2021/10/11 16:49:16;;;;;;;;;4.50;4.50;;;;;;;;2496217;30;24867130;-77
2021/10/11 16:51:58;;;;;;;;;1.00;1.00;;;;;;;;127067;30;86148972;-76
2021/10/11 16:56:57;;;;;;;;;;;;;;;;;;148602;30;114502404;-76
2021/10/11 16:59:49;;;;;;;;;0.00;0.00;;;;;;;;584647;30;71555145;-77
2021/10/11 17:06:43;;;;;;;;;3.50;3.50;;;;;;;;225222;30;134000265;-74
2021/10/11 17:13:14;;;;;;;;;2.50;2.50;;;;;;;;3;128320754;132915475;-75
2021/10/11 17:16:25;;;;;;;;;;;;;;;;;;2;147683373;147683373;-74
2021/10/11 17:19:53;;;;;;;;;8.00;4.50;;;;;;;;1092833;30;68807252;-74
2021/10/11 17:23:56;;;;;;;;;;;;;;;;;;485672;30;179812294;-75
2021/10/11 17:29:40;;;;;;;;;2.50;2.50;;;;;;;;4;15930655;136674137;-75
2021/10/11 17:32:12;;;;;;;;;;;;;;;;;;1151573;30;62204238;-75
2021/10/11 17:36:52;;;;;;;;;1.00;1.00;;;;;;;;313134;30;94178496;-76
2021/10/11 17:49:16;;;;;;;;;;;;;;;;;;3;118341506;138006109;-76
2021/10/11 17:54:10;;;;;;;;;6.50;6.50;;;;;;;;3;114723056;124188225;-76
2021/10/11 18:00:52;;;;;;;;;18.50;9.00;;;;;;;;3;134859707;140406494;-76
2021/10/11 18:07:19;;;;;;;;;6.50;6.50;;;;;;;;3;130570187;139565544;-76
2021/10/11 18:14:05;;;;;;;;;4.00;4.00;;;;;;;;3;128657284;145393135;-76
2021/10/11 18:20:14;;;;;;;;;;;;;;;;;;3;112631451;117134601;-77